Terminal Aerodrome Forecast
Issued by NWS

Home | Current Version | Previous Version | Text Only | Print | Product List | Glossary On
Versions: 1 2 3 4 5 6 7 8 9 10 11 12 13 14 15
903
FTUS43 KBIS 210135 AAA
TAFJMS
TAF AMD
KJMS 210135Z 2102/2124 18015G24KT P6SM SKC WS020/18045KT
     FM210800 21012KT P6SM FEW200 WS020/21040KT
     FM211000 28014KT P6SM SCT250 WS020/29035KT
     FM211600 29015G24KT P6SM VCSH BKN200=

USA.gov is the U.S. government's official web portal to all federal, state and local government web resources and services.